Time;durP1;ratioP1;P1;durP2;ratioP2;P2;SDS_P1;SDS_P2;PMS_P1;PMS_P2;Temp;Humidity;BMP_temperature;BMP_pressure;BME280_temperature;BME280_humidity;BME280_pressure;Samples;Min_cycle;Max_cycle;Signal;HPM_P1;HPM_P2
2023/07/01 00:02:12;;;;;;;6.28;4.93;;;;;;;16.77;100.00;97063.88;5056362;28;20059;-78
2023/07/01 00:04:38;;;;;;;7.75;5.43;;;;;;;16.63;100.00;97058.94;5074288;28;20020;-78
2023/07/01 00:07:04;;;;;;;8.85;5.53;;;;;;;16.63;100.00;97057.09;5039485;28;20039;-78
2023/07/01 00:09:29;;;;;;;7.32;5.60;;;;;;;16.57;100.00;97063.06;5039499;28;20090;-78
2023/07/01 00:11:55;;;;;;;11.60;5.30;;;;;;;16.47;100.00;97056.78;5039838;28;20028;-78
2023/07/01 00:14:20;;;;;;;8.60;6.20;;;;;;;16.41;100.00;97056.50;5039446;28;20564;-78
2023/07/01 00:16:46;;;;;;;10.15;5.53;;;;;;;16.35;100.00;97057.06;5073853;28;20035;-78
2023/07/01 00:19:12;;;;;;;10.05;5.57;;;;;;;16.30;100.00;97060.22;5056032;28;20103;-78
2023/07/01 00:21:37;;;;;;;9.30;5.57;;;;;;;16.30;100.00;97053.94;5039384;28;20025;-78
2023/07/01 00:24:03;;;;;;;10.38;5.60;;;;;;;16.32;100.00;97058.22;5056022;28;20499;-78
2023/07/01 00:26:28;;;;;;;6.70;5.57;;;;;;;16.24;100.00;97050.81;5073827;28;20020;-78
2023/07/01 00:28:54;;;;;;;12.90;6.40;;;;;;;16.24;100.00;97040.00;5055966;28;20032;-78
2023/07/01 00:31:19;;;;;;;9.88;5.93;;;;;;;16.17;100.00;97043.44;5055682;28;20035;-78
2023/07/01 00:33:45;;;;;;;8.77;6.22;;;;;;;16.16;100.00;97042.56;5055915;28;20080;-78
2023/07/01 00:36:10;;;;;;;13.23;6.00;;;;;;;16.22;100.00;97046.56;5073577;28;20033;-78
2023/07/01 00:38:36;;;;;;;7.97;5.97;;;;;;;16.24;100.00;97049.97;5070971;28;20032;-78
2023/07/01 00:41:01;;;;;;;7.18;5.90;;;;;;;16.20;100.00;97059.34;5038872;28;20032;-78
2023/07/01 00:43:27;;;;;;;9.73;6.07;;;;;;;16.23;100.00;97043.72;5055674;28;20032;-78
2023/07/01 00:45:53;;;;;;;10.13;6.05;;;;;;;16.12;100.00;97041.16;5055545;28;20118;-78
2023/07/01 00:48:25;;;;;;;7.80;5.80;;;;;;;16.10;100.00;97047.69;5073505;28;20036;-79
2023/07/01 00:50:52;;;;;;;9.05;5.95;;;;;;;16.09;100.00;97059.47;5055245;28;20465;-78
2023/07/01 00:53:18;;;;;;;8.60;6.20;;;;;;;16.01;100.00;97045.84;5055848;28;20029;-78
2023/07/01 00:55:43;;;;;;;9.85;6.43;;;;;;;15.98;100.00;97049.66;5038672;28;20029;-78
2023/07/01 00:58:09;;;;;;;18.40;6.40;;;;;;;15.95;100.00;97049.09;5038715;28;20648;-78
2023/07/01 01:00:35;;;;;;;9.68;6.72;;;;;;;15.93;100.00;97045.69;5055017;28;20020;-78
2023/07/01 01:03:20;;;;;;;9.75;6.38;;;;;;;16.00;100.00;97046.81;5038791;28;20048;-78
2023/07/01 01:06:12;;;;;;;9.35;7.13;;;;;;;16.01;100.00;97043.13;5039868;28;20085;-78
2023/07/01 01:09:10;;;;;;;13.80;7.78;;;;;;;15.87;100.00;97043.56;5072729;28;20020;-78
2023/07/01 01:11:37;;;;;;;8.48;6.07;;;;;;;15.79;100.00;97038.84;5073095;28;20028;-78
2023/07/01 01:14:05;;;;;;;7.70;5.93;;;;;;;15.70;100.00;97039.69;5054418;28;20028;-78
2023/07/01 01:16:30;;;;;;;11.55;6.95;;;;;;;15.70;100.00;97034.28;5054933;28;20024;-78
2023/07/01 01:18:57;;;;;;;10.40;7.25;;;;;;;15.76;100.00;97043.66;5054875;28;20054;-78
2023/07/01 01:21:24;;;;;;;11.32;7.00;;;;;;;15.72;100.00;97032.28;5054826;28;20029;-78
2023/07/01 01:23:56;;;;;;;14.55;7.00;;;;;;;15.68;100.00;97036.28;5054882;28;20057;-77
2023/07/01 01:26:22;;;;;;;10.07;6.85;;;;;;;15.66;100.00;97044.50;5038194;28;20107;-77
2023/07/01 01:28:49;;;;;;;10.60;6.72;;;;;;;15.63;100.00;97038.53;5054759;28;20028;-77
2023/07/01 01:31:14;;;;;;;10.35;6.80;;;;;;;15.66;100.00;97028.31;5038444;28;20020;-78
2023/07/01 01:33:43;;;;;;;11.82;6.72;;;;;;;15.64;100.00;97019.53;5054274;28;20609;-77
2023/07/01 01:36:39;;;;;;;10.60;6.88;;;;;;;15.56;100.00;97026.63;5072391;28;20085;-77
2023/07/01 01:39:05;;;;;;;13.18;6.90;;;;;;;15.52;100.00;97015.25;5037297;28;20025;-77
2023/07/01 01:41:53;;;;;;;9.10;6.65;;;;;;;15.44;100.00;97033.06;5054550;28;20025;-77
2023/07/01 01:44:28;;;;;;;14.30;6.60;;;;;;;15.35;100.00;97032.03;5037908;28;20222;-77
2023/07/01 01:46:55;;;;;;;11.85;7.10;;;;;;;15.34;100.00;97024.97;5054363;28;20502;-76
2023/07/01 01:49:20;;;;;;;9.63;6.80;;;;;;;15.31;100.00;97030.63;5054437;28;20028;-77
2023/07/01 01:51:46;;;;;;;10.05;6.80;;;;;;;15.26;100.00;97029.34;5054250;28;20395;-77
2023/07/01 01:54:12;;;;;;;10.23;6.93;;;;;;;15.33;100.00;97025.94;5037668;28;20028;-77
2023/07/01 01:56:38;;;;;;;8.57;6.55;;;;;;;15.31;100.00;97032.47;5053970;28;20408;-77
2023/07/01 01:59:04;;;;;;;13.93;7.00;;;;;;;15.34;100.00;97032.19;5054341;28;20032;-78
2023/07/01 02:01:29;;;;;;;8.95;6.40;;;;;;;15.30;100.00;97026.22;5036646;28;20025;-79
2023/07/01 02:03:55;;;;;;;9.75;6.38;;;;;;;15.22;100.00;97012.59;5036909;28;20032;-78
2023/07/01 02:06:21;;;;;;;12.18;6.93;;;;;;;15.17;100.00;97023.75;5054243;28;20032;-79
2023/07/01 02:08:46;;;;;;;12.70;6.60;;;;;;;15.19;100.00;97008.31;5053869;28;20017;-78
2023/07/01 02:11:12;;;;;;;13.18;6.60;;;;;;;15.12;100.00;96995.53;5053710;28;20016;-79
2023/07/01 02:13:37;;;;;;;13.20;6.78;;;;;;;15.15;100.00;97014.97;5037017;28;20542;-76
2023/07/01 02:16:03;;;;;;;9.45;7.22;;;;;;;15.05;100.00;97003.28;5037128;28;20051;-77
2023/07/01 02:18:28;;;;;;;14.68;7.20;;;;;;;15.09;100.00;97006.56;5053468;28;20055;-79
2023/07/01 02:20:54;;;;;;;14.35;7.63;;;;;;;15.13;100.00;97016.09;5068828;28;20041;-78
2023/07/01 02:23:19;;;;;;;12.50;7.70;;;;;;;15.17;100.00;96998.66;5071558;28;20102;-79
2023/07/01 02:25:46;;;;;;;11.45;7.82;;;;;;;15.14;100.00;97009.69;5053952;28;20059;-78
2023/07/01 02:28:13;;;;;;;11.02;7.97;;;;;;;15.15;100.00;97009.56;5072262;28;20400;-84
2023/07/01 02:30:39;;;;;;;10.98;7.93;;;;;;;15.12;100.00;97011.69;5037504;28;20024;-84
2023/07/01 02:33:04;;;;;;;12.98;7.80;;;;;;;15.05;100.00;97005.97;5037695;28;20427;-86
2023/07/01 02:35:30;;;;;;;13.60;8.00;;;;;;;15.10;100.00;97002.91;5054853;28;20659;-85
2023/07/01 02:37:55;;;;;;;12.35;8.50;;;;;;;15.21;100.00;97027.03;5054366;28;20032;-83
2023/07/01 02:40:21;;;;;;;15.38;7.93;;;;;;;15.19;100.00;97018.25;5036849;28;20487;-82
2023/07/01 02:42:46;;;;;;;11.35;7.30;;;;;;;15.15;100.00;97023.03;5036591;28;20503;-83
2023/07/01 02:45:12;;;;;;;23.63;8.25;;;;;;;15.14;100.00;97020.47;5036960;28;20111;-85
2023/07/01 02:47:37;;;;;;;14.02;7.45;;;;;;;15.17;100.00;97014.81;5071938;28;20555;-85
2023/07/01 02:50:04;;;;;;;14.90;7.85;;;;;;;15.17;100.00;97025.59;5036933;28;20060;-83
2023/07/01 02:52:30;;;;;;;12.73;7.32;;;;;;;15.10;100.00;97021.75;5036786;28;20085;-80
2023/07/01 02:54:55;;;;;;;15.35;6.57;;;;;;;15.03;100.00;97018.75;5053682;28;20103;-81
2023/07/01 02:57:21;;;;;;;14.23;6.97;;;;;;;14.97;100.00;97015.72;5036320;28;20044;-81
2023/07/01 02:59:47;;;;;;;13.57;7.10;;;;;;;15.01;100.00;97020.69;5053350;28;20028;-80
2023/07/01 03:02:13;;;;;;;11.10;7.13;;;;;;;15.01;100.00;97027.94;5036597;28;20067;-82
2023/07/01 03:04:38;;;;;;;17.70;7.32;;;;;;;14.98;100.00;97026.34;5036482;28;20117;-80
2023/07/01 03:07:04;;;;;;;13.93;6.90;;;;;;;14.90;100.00;97022.63;5036677;28;20542;-81
2023/07/01 03:09:30;;;;;;;12.35;6.80;;;;;;;14.89;100.00;97026.34;5062179;28;20047;-81
2023/07/01 03:11:56;;;;;;;11.88;7.32;;;;;;;14.81;100.00;97029.69;5036479;28;20111;-81
2023/07/01 03:14:21;;;;;;;12.23;6.90;;;;;;;14.87;100.00;97044.44;5036426;28;20125;-80
2023/07/01 03:16:46;;;;;;;16.90;8.32;;;;;;;14.84;100.00;97042.88;5036523;28;20024;-81
2023/07/01 03:19:13;;;;;;;15.18;7.50;;;;;;;14.89;100.00;97047.88;5033397;28;20056;-80
2023/07/01 03:21:39;;;;;;;12.45;7.65;;;;;;;14.90;100.00;97049.56;5036321;28;20031;-81
2023/07/01 03:24:04;;;;;;;18.45;7.53;;;;;;;14.84;100.00;97050.09;5050302;28;20454;-81
2023/07/01 03:26:30;;;;;;;16.88;7.15;;;;;;;14.89;100.00;97055.97;5052640;28;20036;-80
2023/07/01 03:28:55;;;;;;;11.65;7.30;;;;;;;14.92;100.00;97044.91;5053237;28;20166;-83
2023/07/01 03:31:21;;;;;;;14.45;7.85;;;;;;;14.99;100.00;97046.94;5053520;28;20477;-82
2023/07/01 03:33:47;;;;;;;15.23;7.70;;;;;;;15.03;100.00;97042.13;5036396;28;20045;-83
2023/07/01 03:36:13;;;;;;;10.77;7.10;;;;;;;15.07;100.00;97040.88;5036735;28;20028;-83
2023/07/01 03:38:38;;;;;;;12.32;6.57;;;;;;;15.05;100.00;97042.84;5053540;28;20507;-82
2023/07/01 03:41:06;;;;;;;14.02;6.90;;;;;;;15.07;100.00;97044.41;5028407;28;20068;-84
2023/07/01 03:43:32;;;;;;;11.35;6.50;;;;;;;15.11;100.00;97036.91;5037041;28;20035;-78
2023/07/01 03:45:58;;;;;;;15.80;6.97;;;;;;;15.20;100.00;97034.25;5036026;28;20028;-78
2023/07/01 03:48:23;;;;;;;14.60;7.68;;;;;;;15.30;100.00;97042.38;5052649;28;20476;-78
2023/07/01 03:50:49;;;;;;;12.52;7.97;;;;;;;15.37;100.00;97037.31;5052628;28;20111;-81
2023/07/01 03:53:14;;;;;;;14.70;8.25;;;;;;;15.42;100.00;97030.50;5052960;28;20051;-81
2023/07/01 03:55:40;;;;;;;15.43;8.07;;;;;;;15.48;100.00;97024.59;5032768;28;20119;-82
2023/07/01 03:58:05;;;;;;;18.58;9.32;;;;;;;15.60;100.00;97026.19;5052967;28;20392;-82
2023/07/01 04:00:31;;;;;;;12.90;7.55;;;;;;;15.69;100.00;97038.81;5036159;28;20036;-81
2023/07/01 04:03:03;;;;;;;11.02;7.38;;;;;;;15.72;100.00;97027.75;5036229;28;20032;-81
2023/07/01 04:05:30;;;;;;;11.10;7.07;;;;;;;15.85;100.00;97026.66;5053102;28;20477;-84
2023/07/01 04:07:55;;;;;;;13.20;7.22;;;;;;;15.91;100.00;97023.38;5053171;28;20107;-83
2023/07/01 04:10:21;;;;;;;11.38;7.90;;;;;;;16.04;100.00;97032.06;5036727;28;20098;-84
2023/07/01 04:12:46;;;;;;;16.52;7.93;;;;;;;16.07;100.00;97026.38;5036436;28;20028;-83
2023/07/01 04:15:12;;;;;;;17.63;7.80;;;;;;;16.14;100.00;97028.38;5053028;28;20028;-84
2023/07/01 04:17:51;;;;;;;13.75;7.63;;;;;;;16.26;100.00;97040.75;5053010;28;20442;-85
2023/07/01 04:20:19;;;;;;;14.18;7.78;;;;;;;16.26;100.00;97042.59;5053317;28;20496;-84
2023/07/01 04:22:45;;;;;;;17.95;7.55;;;;;;;16.41;100.00;97032.19;5036695;28;20024;-84
2023/07/01 04:25:11;;;;;;;12.27;7.15;;;;;;;16.51;100.00;97025.81;5055440;28;20048;-82
2023/07/01 04:27:37;;;;;;;13.82;7.88;;;;;;;16.64;100.00;97026.34;5039560;28;20473;-83
2023/07/01 04:30:04;;;;;;;17.80;8.68;;;;;;;16.78;100.00;97028.63;5036925;28;20037;-82
2023/07/01 04:32:29;;;;;;;14.63;8.43;;;;;;;16.88;100.00;97027.75;5056072;28;20028;-82
2023/07/01 04:34:55;;;;;;;12.55;7.50;;;;;;;17.00;100.00;97022.03;5056051;28;20036;-82
2023/07/01 04:37:20;;;;;;;13.45;7.55;;;;;;;17.04;100.00;97018.00;5056158;28;20041;-82
2023/07/01 04:39:46;;;;;;;15.48;7.78;;;;;;;17.21;100.00;97029.91;5056005;28;20028;-82
2023/07/01 04:42:12;;;;;;;14.15;7.30;;;;;;;17.22;100.00;97026.19;5039347;28;20056;-82
2023/07/01 04:44:37;;;;;;;14.40;7.68;;;;;;;17.29;100.00;97021.88;5055838;28;20032;-82
2023/07/01 04:47:03;;;;;;;11.18;7.65;;;;;;;17.41;100.00;97028.78;5039651;28;20074;-82
2023/07/01 04:49:28;;;;;;;10.25;7.35;;;;;;;17.52;100.00;97023.19;5055848;28;20068;-81
2023/07/01 04:51:54;;;;;;;13.02;7.28;;;;;;;17.64;100.00;97013.06;5055538;28;20025;-83
2023/07/01 04:54:19;;;;;;;13.88;7.93;;;;;;;18.55;100.00;97018.19;5039339;28;20052;-81
2023/07/01 04:56:46;;;;;;;11.38;7.07;;;;;;;19.69;100.00;97003.44;5039466;28;20087;-82
2023/07/01 04:59:12;;;;;;;15.07;6.90;;;;;;;20.66;100.00;97003.63;5056022;28;20068;-82
2023/07/01 05:01:37;;;;;;;11.70;6.68;;;;;;;21.73;100.00;96993.16;5038942;28;20059;-80
2023/07/01 05:04:03;;;;;;;19.60;9.27;;;;;;;22.88;100.00;96984.91;5055361;28;20063;-83
2023/07/01 05:06:29;;;;;;;10.52;5.80;;;;;;;23.75;100.00;96974.00;5035350;28;20123;-84
2023/07/01 05:08:54;;;;;;;8.15;5.78;;;;;;;24.35;100.00;96964.63;5072892;28;20039;-84
2023/07/01 05:11:20;;;;;;;14.70;7.22;;;;;;;24.88;100.00;96971.47;5038836;28;20032;-85
2023/07/01 05:13:46;;;;;;;21.77;7.57;;;;;;;25.77;100.00;96956.88;5036931;28;20086;-81
2023/07/01 05:16:11;;;;;;;10.90;5.85;;;;;;;26.19;100.00;96955.78;5055666;28;20043;-81
2023/07/01 05:18:37;;;;;;;12.77;6.05;;;;;;;27.33;95.46;96951.00;5038419;28;20059;-81
2023/07/01 05:21:02;;;;;;;10.07;5.70;;;;;;;27.20;90.40;96940.88;5038674;28;20050;-82
2023/07/01 05:23:28;;;;;;;7.72;4.93;;;;;;;27.07;92.96;96951.88;5038608;28;20020;-82
2023/07/01 05:25:53;;;;;;;12.90;5.55;;;;;;;27.70;86.53;96949.44;5038663;28;20036;-82
2023/07/01 05:28:19;;;;;;;10.15;4.82;;;;;;;28.50;80.76;96949.69;5038399;28;20038;-81
2023/07/01 05:30:46;;;;;;;9.93;5.90;;;;;;;28.84;77.94;96950.31;5073204;28;20035;-81
2023/07/01 05:33:12;;;;;;;7.32;5.45;;;;;;;29.36;73.21;96951.78;5037916;28;20067;-87
2023/07/01 05:35:37;;;;;;;10.63;5.82;;;;;;;28.30;78.97;96943.47;5037787;28;20029;-74
2023/07/01 05:38:09;;;;;;;8.40;5.15;;;;;;;28.60;78.00;96945.59;5038049;28;20028;-77
2023/07/01 05:40:35;;;;;;;;;;;;;;;29.13;76.31;96955.16;5054806;28;20404;-77
2023/07/01 05:43:00;;;;;;;9.77;5.07;;;;;;;29.78;70.71;96950.06;5072146;28;19916;-77
2023/07/01 05:45:26;;;;;;;13.10;6.05;;;;;;;30.46;65.58;96936.88;5054374;28;20027;-77
2023/07/01 05:47:51;;;;;;;12.18;5.22;;;;;;;30.92;61.31;96938.91;5054474;28;20450;-77
2023/07/01 05:50:17;;;;;;;43.47;13.52;;;;;;;31.70;56.46;96936.72;5037601;28;20031;-77
2023/07/01 05:52:42;;;;;;;12.07;6.35;;;;;;;32.10;53.89;96925.69;5037640;28;20428;-78
2023/07/01 05:55:08;;;;;;;11.75;6.22;;;;;;;31.62;54.92;96939.84;5054315;28;20072;-79
2023/07/01 05:57:34;;;;;;;12.25;5.40;;;;;;;31.56;55.57;96933.34;5054386;28;20028;-78
2023/07/01 05:59:59;;;;;;;9.75;5.82;;;;;;;31.53;56.11;96933.81;5054579;28;20381;-83
2023/07/01 06:02:25;;;;;;;13.32;6.07;;;;;;;31.89;53.87;96932.69;5038098;28;20539;-83
2023/07/01 06:04:50;;;;;;;24.17;15.68;;;;;;;31.72;54.80;96933.72;5037859;28;20057;-84
2023/07/01 06:07:16;;;;;;;13.73;6.40;;;;;;;32.26;53.55;96947.06;5071939;28;20120;-86
2023/07/01 06:09:48;;;;;;;14.73;7.65;;;;;;;30.80;58.33;96935.28;5054819;28;20032;-84
2023/07/01 06:12:13;;;;;;;34.85;26.15;;;;;;;31.08;57.11;96947.38;5054955;28;20033;-86
2023/07/01 06:14:39;;;;;;;14.07;5.22;;;;;;;31.23;56.89;96944.16;5037784;28;20023;-83
2023/07/01 06:17:06;;;;;;;7.47;4.63;;;;;;;31.27;54.83;96937.06;5037672;28;20044;-85
2023/07/01 06:19:31;;;;;;;14.50;10.10;;;;;;;31.84;52.81;96937.28;5037356;28;20030;-84
2023/07/01 06:21:57;;;;;;;124.38;88.93;;;;;;;32.16;50.65;96938.53;5037618;28;20119;-84
2023/07/01 06:24:22;;;;;;;7.00;4.85;;;;;;;33.30;46.80;96937.34;5054050;28;20033;-85
2023/07/01 06:26:48;;;;;;;7.53;5.43;;;;;;;33.56;46.09;96930.25;5054452;28;20039;-85
2023/07/01 06:29:13;;;;;;;10.55;5.43;;;;;;;33.81;44.35;96930.63;5054496;28;20035;-83
2023/07/01 06:31:39;;;;;;;6.53;4.18;;;;;;;34.38;43.86;96917.22;5037275;28;20400;-84
2023/07/01 06:34:11;;;;;;;9.05;5.03;;;;;;;34.74;43.84;96921.22;5053528;28;20052;-85
2023/07/01 06:36:37;;;;;;;31.45;23.27;;;;;;;33.81;45.65;96933.41;5031977;28;20127;-86
2023/07/01 06:39:02;;;;;;;6.45;3.92;;;;;;;34.02;46.83;96931.75;5054075;28;20139;-84
2023/07/01 06:41:28;;;;;;;19.58;7.28;;;;;;;34.92;45.08;96922.81;5053930;28;20028;-84
2023/07/01 06:43:53;;;;;;;12.27;5.30;;;;;;;33.40;48.31;96933.91;5071828;28;20040;-85
2023/07/01 06:46:19;;;;;;;13.95;5.53;;;;;;;33.43;50.38;96934.25;5053116;28;20475;-85
2023/07/01 06:48:45;;;;;;;10.73;6.75;;;;;;;33.98;50.77;96936.97;5036853;28;20616;-83
2023/07/01 06:51:10;;;;;;;28.73;12.63;;;;;;;33.75;50.75;96938.06;5037096;28;20067;-84
2023/07/01 06:53:39;;;;;;;19.10;7.28;;;;;;;34.90;46.70;96927.78;5052927;28;20035;-83
2023/07/01 06:56:05;;;;;;;26.50;16.63;;;;;;;34.82;47.27;96926.34;5036918;28;20411;-84
2023/07/01 06:58:31;;;;;;;21.23;13.95;;;;;;;35.80;45.03;96920.19;5036562;28;20106;-85
2023/07/01 07:00:56;;;;;;;11.10;7.38;;;;;;;36.49;43.02;96919.06;5035285;28;20086;-85
2023/07/01 07:03:22;;;;;;;5.78;4.95;;;;;;;37.26;40.82;96907.75;5036771;28;20551;-85
2023/07/01 07:05:48;;;;;;;5.80;4.65;;;;;;;37.40;40.25;96903.31;5053026;28;20119;-85
2023/07/01 07:08:13;;;;;;;12.35;7.68;;;;;;;37.04;40.82;96912.81;5053705;28;20028;-84
2023/07/01 07:10:39;;;;;;;9.05;4.70;;;;;;;36.54;41.56;96911.59;5052928;28;20036;-84
2023/07/01 07:13:04;;;;;;;7.55;5.03;;;;;;;35.39;43.51;96920.97;5052923;28;20028;-85
2023/07/01 07:15:30;;;;;;;32.47;19.80;;;;;;;35.02;46.83;96918.16;5036714;28;20036;-86
2023/07/01 07:17:56;;;;;;;15.98;9.40;;;;;;;36.13;45.05;96909.75;5071344;28;20151;-84
2023/07/01 07:20:21;;;;;;;14.77;11.02;;;;;;;35.54;45.61;96901.59;5036594;28;20488;-86
2023/07/01 07:22:47;;;;;;;25.02;17.58;;;;;;;35.94;44.54;96902.94;5036123;28;20481;-85
2023/07/01 07:25:19;;;;;;;30.02;23.08;;;;;;;35.79;44.04;96906.50;5036479;28;20035;-85
2023/07/01 07:27:45;;;;;;;8.93;5.22;;;;;;;36.23;43.41;96893.09;5036685;28;20024;-85
2023/07/01 07:30:12;;;;;;;6.18;4.95;;;;;;;36.60;43.15;96896.56;5034720;28;20395;-85
2023/07/01 07:32:38;;;;;;;13.25;6.47;;;;;;;37.96;40.52;96902.09;5036039;28;20028;-85
2023/07/01 07:35:04;;;;;;;11.90;5.43;;;;;;;37.82;40.92;96895.41;5036246;28;20468;-85
2023/07/01 07:37:30;;;;;;;8.73;6.13;;;;;;;37.66;40.65;96892.94;5036250;28;20025;-85
2023/07/01 07:39:58;;;;;;;6.82;4.68;;;;;;;38.74;37.66;96882.69;5053154;28;20070;-86
2023/07/01 07:42:24;;;;;;;6.68;4.30;;;;;;;39.40;36.74;96877.44;5052826;28;20088;-85
2023/07/01 07:44:49;;;;;;;5.70;4.25;;;;;;;40.58;34.60;96870.19;5052633;28;20091;-84
2023/07/01 07:47:15;;;;;;;5.30;4.20;;;;;;;41.56;33.81;96874.78;5052997;28;20377;-87
2023/07/01 07:49:41;;;;;;;10.30;7.00;;;;;;;40.85;34.05;96866.69;5036260;28;20063;-84
2023/07/01 07:52:06;;;;;;;6.88;4.53;;;;;;;41.23;35.53;96875.91;5035556;28;20062;-84
2023/07/01 07:54:32;;;;;;;6.78;4.85;;;;;;;40.76;34.80;96866.56;5036209;28;20032;-86
2023/07/01 07:56:59;;;;;;;10.45;6.03;;;;;;;41.36;33.70;96866.72;5036122;28;20029;-85
2023/07/01 07:59:28;;;;;;;6.25;5.38;;;;;;;41.28;31.68;96861.78;5054522;28;20020;-86
2023/07/01 08:01:56;;;;;;;9.40;3.80;;;;;;;42.06;30.17;96854.09;5056715;28;20515;-85
2023/07/01 08:04:22;;;;;;;5.93;3.38;;;;;;;42.23;29.90;96844.22;5054292;28;20120;-85
2023/07/01 08:06:48;;;;;;;7.30;4.70;;;;;;;42.33;30.52;96847.66;5051209;28;20039;-85
2023/07/01 08:09:14;;;;;;;10.05;4.70;;;;;;;41.76;31.69;96849.13;5056595;28;20036;-86
2023/07/01 08:11:39;;;;;;;14.75;4.85;;;;;;;41.47;32.09;96851.34;5039669;28;20024;-86
2023/07/01 08:14:05;;;;;;;6.60;4.50;;;;;;;40.58;33.20;96842.97;5039069;28;20408;-85
2023/07/01 08:16:32;;;;;;;5.13;4.07;;;;;;;40.78;32.43;96841.81;5056614;28;20038;-84
2023/07/01 08:18:57;;;;;;;5.57;3.55;;;;;;;41.18;30.28;96833.88;5039466;28;20036;-85
2023/07/01 08:21:23;;;;;;;4.25;3.85;;;;;;;41.06;29.70;96828.75;5039544;28;20107;-84
2023/07/01 08:23:49;;;;;;;3.63;3.33;;;;;;;41.12;29.90;96830.34;5055640;28;20052;-84
2023/07/01 08:26:14;;;;;;;4.05;3.55;;;;;;;40.44;30.35;96815.94;5069041;28;20036;-85
2023/07/01 08:28:40;;;;;;;5.82;4.53;;;;;;;40.42;31.11;96818.22;5055913;28;20032;-84
2023/07/01 08:31:05;;;;;;;4.10;3.70;;;;;;;40.27;30.87;96812.84;5039213;28;20039;-84
2023/07/01 08:33:32;;;;;;;6.47;3.85;;;;;;;39.38;32.69;96817.25;5039151;28;20105;-86
2023/07/01 08:35:57;;;;;;;5.00;4.07;;;;;;;38.92;32.52;96800.88;5039133;28;20029;-84
2023/07/01 08:38:23;;;;;;;5.80;4.00;;;;;;;39.64;31.93;96809.41;5039277;28;20074;-83
2023/07/01 08:40:51;;;;;;;4.30;3.80;;;;;;;40.18;31.67;96814.66;5039700;28;20032;-83
2023/07/01 08:43:20;;;;;;;7.55;3.65;;;;;;;40.44;30.82;96813.16;5039384;28;20035;-84
2023/07/01 08:45:50;;;;;;;7.22;3.60;;;;;;;40.77;29.83;96808.44;5056181;28;20031;-83
2023/07/01 08:48:17;;;;;;;4.65;3.78;;;;;;;41.04;29.85;96803.78;5039309;28;20024;-87
2023/07/01 08:50:52;;;;;;;4.22;3.83;;;;;;;41.46;29.56;96801.94;5039371;28;20021;-84
2023/07/01 08:53:19;;;;;;;4.85;3.65;;;;;;;41.86;29.35;96805.91;5039465;28;20036;-84
2023/07/01 08:55:45;;;;;;;5.45;3.65;;;;;;;42.68;28.07;96801.00;5055499;28;20472;-84
2023/07/01 08:58:13;;;;;;;23.13;5.03;;;;;;;42.62;28.36;96799.47;5055482;28;20075;-83
2023/07/01 09:00:39;;;;;;;12.10;4.03;;;;;;;42.15;29.08;96804.41;5039058;28;20116;-84
2023/07/01 09:03:05;;;;;;;3.83;3.42;;;;;;;42.48;28.72;96801.47;5038951;28;20454;-83
2023/07/01 09:05:30;;;;;;;13.15;5.00;;;;;;;42.84;27.82;96804.25;5038689;28;20036;-84
2023/07/01 09:07:56;;;;;;;4.55;3.30;;;;;;;42.49;27.86;96803.94;5055313;28;20377;-82
2023/07/01 09:10:21;;;;;;;8.55;4.57;;;;;;;42.36;28.61;96804.00;5038379;28;20399;-83
2023/07/01 09:12:47;;;;;;;4.97;3.53;;;;;;;42.84;28.26;96791.03;5055439;28;20036;-84
2023/07/01 09:15:12;;;;;;;4.40;3.70;;;;;;;42.26;28.30;96784.53;5055101;28;20438;-83
2023/07/01 09:17:40;;;;;;;4.97;3.63;;;;;;;41.69;28.68;96789.63;5055099;28;20547;-84
2023/07/01 09:20:07;;;;;;;3.70;3.30;;;;;;;41.43;29.38;96791.31;5038212;28;20028;-83
2023/07/01 09:22:34;;;;;;;5.05;3.90;;;;;;;41.53;29.38;96799.53;5038291;28;20476;-83
2023/07/01 09:25:00;;;;;;;4.00;3.60;;;;;;;42.25;28.21;96786.50;5037905;28;20042;-82
2023/07/01 09:27:39;;;;;;;4.18;3.55;;;;;;;42.83;28.06;96788.50;5072960;28;20020;-85
2023/07/01 09:30:21;;;;;;;5.15;4.63;;;;;;;43.59;27.08;96784.56;5054664;28;20021;-82
2023/07/01 09:32:49;;;;;;;5.05;4.55;;;;;;;42.83;27.45;96780.06;5055055;28;20052;-83
2023/07/01 09:35:15;;;;;;;4.20;3.45;;;;;;;42.90;26.81;96774.81;5054957;28;20028;-85
2023/07/01 09:37:40;;;;;;;4.00;3.60;;;;;;;42.58;27.30;96776.75;5038514;28;20028;-83
2023/07/01 09:40:20;;;;;;;4.47;3.83;;;;;;;42.80;27.58;96777.91;5054695;28;20043;-83
2023/07/01 09:42:54;;;;;;;6.30;4.28;;;;;;;41.60;28.00;96769.88;5038000;28;20024;-83
2023/07/01 09:45:19;;;;;;;6.20;3.83;;;;;;;42.30;27.98;96765.88;5054491;28;20067;-84
2023/07/01 09:47:51;;;;;;;4.25;3.78;;;;;;;42.34;28.04;96761.28;5038923;28;20062;-83
2023/07/01 09:50:21;;;;;;;4.22;3.83;;;;;;;42.85;26.96;96758.06;5037561;28;20524;-83
2023/07/01 09:52:48;;;;;;;4.78;4.38;;;;;;;42.02;27.54;96759.47;5054581;28;20046;-83
2023/07/01 09:55:14;;;;;;;7.63;5.15;;;;;;;42.05;28.11;96751.25;5054677;28;20032;-83
2023/07/01 09:57:41;;;;;;;5.35;3.83;;;;;;;42.92;27.08;96738.72;5054640;28;20031;-84
2023/07/01 10:00:10;;;;;;;8.98;7.30;;;;;;;43.33;27.13;96739.31;5037615;28;20040;-84
2023/07/01 10:02:35;;;;;;;4.30;3.90;;;;;;;42.82;26.96;96745.47;5038062;28;20021;-83
2023/07/01 10:05:01;;;;;;;3.92;3.53;;;;;;;43.38;26.14;96733.56;5037679;28;20107;-84
2023/07/01 10:07:27;;;;;;;6.68;3.70;;;;;;;44.26;25.50;96728.72;5054142;28;20024;-82
2023/07/01 10:09:53;;;;;;;4.07;3.63;;;;;;;44.83;24.66;96726.53;5037685;28;20373;-84
2023/07/01 10:12:19;;;;;;;7.07;3.50;;;;;;;45.02;24.25;96724.19;5037137;28;21392;-85
2023/07/01 10:14:50;;;;;;;4.45;3.63;;;;;;;45.27;24.39;96723.28;5037276;28;20024;-83
2023/07/01 10:17:17;;;;;;;4.75;4.25;;;;;;;45.26;24.91;96730.09;5037583;28;20455;-83
2023/07/01 10:19:46;;;;;;;5.07;4.28;;;;;;;46.04;23.31;96715.63;5036943;28;20395;-84
2023/07/01 10:22:25;;;;;;;3.88;3.58;;;;;;;45.23;23.73;96708.19;5037115;28;20506;-84
2023/07/01 10:25:03;;;;;;;4.35;3.95;;;;;;;44.84;24.66;96711.25;5053838;28;20028;-84
2023/07/01 10:27:40;;;;;;;9.05;5.07;;;;;;;45.64;24.23;96703.88;5053344;28;20029;-85
2023/07/01 10:30:11;;;;;;;5.82;3.97;;;;;;;45.49;23.49;96693.97;5053696;28;20028;-85
2023/07/01 10:32:36;;;;;;;4.03;3.60;;;;;;;44.90;24.87;96698.63;5053352;28;20135;-83
2023/07/01 10:35:05;;;;;;;6.53;4.30;;;;;;;45.06;24.10;96701.75;5036998;28;20075;-84
2023/07/01 10:37:32;;;;;;;4.93;4.15;;;;;;;45.88;23.38;96697.59;5071142;28;20085;-85
2023/07/01 10:39:59;;;;;;;4.65;4.00;;;;;;;46.14;23.30;96686.97;5036834;28;20116;-84
2023/07/01 10:42:33;;;;;;;5.90;4.18;;;;;;;45.92;24.00;96690.91;5053444;28;20484;-85
2023/07/01 10:45:10;;;;;;;6.68;4.70;;;;;;;46.01;23.24;96683.19;5037905;28;20492;-85
2023/07/01 10:47:46;;;;;;;11.25;10.00;;;;;;;46.38;23.19;96681.44;5068157;28;20484;-84
2023/07/01 10:50:16;;;;;;;4.32;3.92;;;;;;;45.82;22.76;96680.00;5050178;28;20024;-84
2023/07/01 10:52:57;;;;;;;4.00;3.70;;;;;;;46.33;22.99;96678.81;5053032;28;20025;-84
2023/07/01 10:55:39;;;;;;;4.80;4.40;;;;;;;46.29;22.80;96678.69;5052814;28;20036;-84
2023/07/01 10:58:26;;;;;;;4.30;3.63;;;;;;;45.48;23.45;96675.34;5036320;28;20036;-84
2023/07/01 11:00:52;;;;;;;5.13;3.97;;;;;;;45.80;23.52;96665.38;5053415;28;20430;-84
2023/07/01 11:03:33;;;;;;;6.30;4.18;;;;;;;46.29;23.99;96677.84;5052596;28;20446;-84
2023/07/01 11:06:11;;;;;;;4.03;3.70;;;;;;;46.04;23.23;96659.88;5070802;28;20094;-84
2023/07/01 11:08:47;;;;;;;6.65;3.95;;;;;;;45.75;23.00;96657.06;5052586;28;20487;-84
2023/07/01 11:11:26;;;;;;;3.80;3.50;;;;;;;46.30;22.25;96646.34;5035928;28;20111;-85
2023/07/01 11:13:56;;;;;;;5.03;3.67;;;;;;;45.80;22.55;96642.75;5036100;28;20040;-84
2023/07/01 11:16:22;;;;;;;;;;;;;;;45.75;22.87;96648.59;5053143;28;20078;-84
2023/07/01 11:18:53;;;;;;;4.10;3.70;;;;;;;45.88;22.80;96650.34;5045765;28;20339;-84
2023/07/01 11:21:23;;;;;;;4.38;3.95;;;;;;;46.33;22.33;96641.19;5036056;28;20020;-85
2023/07/01 11:23:54;;;;;;;4.15;3.75;;;;;;;46.81;21.98;96655.56;5029286;28;20084;-85
2023/07/01 11:26:20;;;;;;;4.32;3.80;;;;;;;46.64;22.90;96655.72;5036128;28;20119;-87